Fife Ness, United Kingdom
Current Conditions -  °F | °C
As of 2:50 PM on Thursday 23 Oct 2014 (Local Time) from EGQL Reporting Station
Scattered Clouds Scattered Clouds  
Wind Chill: 59°   Ceiling: Unl
Heat Index: 59°   Visibility: 6mi
Dew Point: 52°   Wind: 25mph
Humidity: 77%   Direction: 230°SW
Pressure: 29.71"   Gusts: NA
Location:  56.3°N, 2.58°W
Report Text: EGQL 231350Z 23022KT 9999 SCT030 15/11 Q1006 BLU
Loading
Personal Weather Stations






























Interactive Weather Map
Tropical Storm Tracking
New forecast layout! Learn more

10-Day Weather Forecast

Advertisements
Track Severe Weather on mobile